sensor_id;sensor_type;location;lat;lon;timestamp;P1;durP1;ratioP1;P2;durP2;ratioP2
78668;SDS011;67984;45.118;20.724;2023-11-22T00:03:10;45.08;;;21.05;;
78668;SDS011;67984;45.118;20.724;2023-11-22T00:13:12;44.25;;;25.83;;
78668;SDS011;67984;45.118;20.724;2023-11-22T00:23:13;39.45;;;22.83;;
78668;SDS011;67984;45.118;20.724;2023-11-22T00:33:14;35.63;;;19.30;;
78668;SDS011;67984;45.118;20.724;2023-11-22T00:43:15;31.70;;;19.48;;
78668;SDS011;67984;45.118;20.724;2023-11-22T00:53:17;27.67;;;16.35;;
78668;SDS011;67984;45.118;20.724;2023-11-22T01:03:19;30.45;;;19.52;;
78668;SDS011;67984;45.118;20.724;2023-11-22T01:13:21;27.10;;;18.27;;
78668;SDS011;67984;45.118;20.724;2023-11-22T01:23:23;27.55;;;18.58;;
78668;SDS011;67984;45.118;20.724;2023-11-22T01:33:25;29.92;;;15.73;;
78668;SDS011;67984;45.118;20.724;2023-11-22T01:43:28;26.15;;;16.40;;
78668;SDS011;67984;45.118;20.724;2023-11-22T01:53:29;31.50;;;20.75;;
78668;SDS011;67984;45.118;20.724;2023-11-22T02:03:32;26.90;;;18.02;;
78668;SDS011;67984;45.118;20.724;2023-11-22T02:13:33;29.00;;;15.80;;
78668;SDS011;67984;45.118;20.724;2023-11-22T02:23:34;28.38;;;15.80;;
78668;SDS011;67984;45.118;20.724;2023-11-22T02:33:36;32.65;;;17.33;;
78668;SDS011;67984;45.118;20.724;2023-11-22T02:43:37;38.63;;;18.35;;
78668;SDS011;67984;45.118;20.724;2023-11-22T02:53:38;31.88;;;16.35;;
78668;SDS011;67984;45.118;20.724;2023-11-22T03:03:40;37.92;;;20.08;;
78668;SDS011;67984;45.118;20.724;2023-11-22T03:13:42;40.88;;;20.95;;
78668;SDS011;67984;45.118;20.724;2023-11-22T03:23:45;32.13;;;18.45;;
78668;SDS011;67984;45.118;20.724;2023-11-22T03:33:46;36.30;;;18.83;;
78668;SDS011;67984;45.118;20.724;2023-11-22T03:43:47;38.15;;;19.92;;
78668;SDS011;67984;45.118;20.724;2023-11-22T03:53:48;34.05;;;20.65;;
78668;SDS011;67984;45.118;20.724;2023-11-22T04:03:49;37.00;;;19.90;;
78668;SDS011;67984;45.118;20.724;2023-11-22T04:13:51;38.28;;;20.65;;
78668;SDS011;67984;45.118;20.724;2023-11-22T04:23:53;50.88;;;24.35;;
78668;SDS011;67984;45.118;20.724;2023-11-22T04:33:55;56.80;;;28.08;;
78668;SDS011;67984;45.118;20.724;2023-11-22T04:43:58;58.60;;;26.98;;
78668;SDS011;67984;45.118;20.724;2023-11-22T04:53:59;48.70;;;22.70;;
78668;SDS011;67984;45.118;20.724;2023-11-22T05:04:01;74.45;;;35.08;;
78668;SDS011;67984;45.118;20.724;2023-11-22T05:14:02;54.00;;;23.98;;
78668;SDS011;67984;45.118;20.724;2023-11-22T05:24:04;57.92;;;27.25;;
78668;SDS011;67984;45.118;20.724;2023-11-22T05:34:05;65.53;;;30.85;;
78668;SDS011;67984;45.118;20.724;2023-11-22T05:44:06;73.18;;;32.53;;
78668;SDS011;67984;45.118;20.724;2023-11-22T05:54:09;89.10;;;39.25;;
78668;SDS011;67984;45.118;20.724;2023-11-22T06:04:12;74.82;;;31.48;;
78668;SDS011;67984;45.118;20.724;2023-11-22T06:14:14;72.80;;;30.30;;
78668;SDS011;67984;45.118;20.724;2023-11-22T06:24:15;85.80;;;36.78;;
78668;SDS011;67984;45.118;20.724;2023-11-22T06:34:21;77.60;;;30.48;;
78668;SDS011;67984;45.118;20.724;2023-11-22T06:44:23;102.50;;;43.67;;
78668;SDS011;67984;45.118;20.724;2023-11-22T06:54:24;71.10;;;32.58;;
78668;SDS011;67984;45.118;20.724;2023-11-22T07:04:26;79.47;;;35.80;;
78668;SDS011;67984;45.118;20.724;2023-11-22T07:14:28;76.88;;;35.13;;
78668;SDS011;67984;45.118;20.724;2023-11-22T07:24:30;83.85;;;32.88;;
78668;SDS011;67984;45.118;20.724;2023-11-22T07:34:35;81.15;;;34.00;;
78668;SDS011;67984;45.118;20.724;2023-11-22T07:44:37;86.68;;;30.80;;
78668;SDS011;67984;45.118;20.724;2023-11-22T07:54:39;120.13;;;36.33;;
78668;SDS011;67984;45.118;20.724;2023-11-22T08:04:40;91.85;;;34.65;;
78668;SDS011;67984;45.118;20.724;2023-11-22T08:14:42;81.55;;;31.13;;
78668;SDS011;67984;45.118;20.724;2023-11-22T08:24:47;91.57;;;34.17;;
78668;SDS011;67984;45.118;20.724;2023-11-22T08:34:53;104.65;;;37.85;;
78668;SDS011;67984;45.118;20.724;2023-11-22T08:44:54;83.53;;;32.30;;
78668;SDS011;67984;45.118;20.724;2023-11-22T08:54:55;87.53;;;32.17;;
78668;SDS011;67984;45.118;20.724;2023-11-22T09:04:56;88.38;;;29.80;;
78668;SDS011;67984;45.118;20.724;2023-11-22T09:14:58;86.03;;;32.00;;
78668;SDS011;67984;45.118;20.724;2023-11-22T09:24:59;119.28;;;44.67;;
78668;SDS011;67984;45.118;20.724;2023-11-22T09:35:00;89.22;;;34.40;;
78668;SDS011;67984;45.118;20.724;2023-11-22T09:45:02;96.65;;;35.72;;
78668;SDS011;67984;45.118;20.724;2023-11-22T09:55:04;84.18;;;34.38;;
78668;SDS011;67984;45.118;20.724;2023-11-22T10:05:06;75.82;;;31.63;;
78668;SDS011;67984;45.118;20.724;2023-11-22T10:15:13;82.75;;;32.90;;
78668;SDS011;67984;45.118;20.724;2023-11-22T10:25:15;81.10;;;36.17;;
78668;SDS011;67984;45.118;20.724;2023-11-22T10:35:19;68.85;;;31.40;;
78668;SDS011;67984;45.118;20.724;2023-11-22T10:45:23;90.28;;;36.65;;
78668;SDS011;67984;45.118;20.724;2023-11-22T10:55:27;88.15;;;38.75;;
78668;SDS011;67984;45.118;20.724;2023-11-22T11:05:32;122.85;;;54.50;;
78668;SDS011;67984;45.118;20.724;2023-11-22T11:15:38;98.95;;;45.35;;
78668;SDS011;67984;45.118;20.724;2023-11-22T11:25:39;100.57;;;49.33;;
78668;SDS011;67984;45.118;20.724;2023-11-22T11:35:45;63.40;;;30.35;;
78668;SDS011;67984;45.118;20.724;2023-11-22T11:45:47;75.28;;;37.40;;
78668;SDS011;67984;45.118;20.724;2023-11-22T11:55:50;56.83;;;27.33;;
78668;SDS011;67984;45.118;20.724;2023-11-22T12:05:53;52.50;;;24.67;;
78668;SDS011;67984;45.118;20.724;2023-11-22T12:15:55;76.40;;;36.20;;
78668;SDS011;67984;45.118;20.724;2023-11-22T12:25:57;54.38;;;25.50;;
78668;SDS011;67984;45.118;20.724;2023-11-22T12:35:58;56.53;;;26.02;;
78668;SDS011;67984;45.118;20.724;2023-11-22T12:46:00;65.22;;;29.13;;
78668;SDS011;67984;45.118;20.724;2023-11-22T12:56:02;55.35;;;30.42;;
78668;SDS011;67984;45.118;20.724;2023-11-22T13:06:03;70.75;;;34.90;;
78668;SDS011;67984;45.118;20.724;2023-11-22T13:16:05;67.15;;;31.45;;
78668;SDS011;67984;45.118;20.724;2023-11-22T13:26:06;109.00;;;44.05;;
78668;SDS011;67984;45.118;20.724;2023-11-22T13:36:14;110.60;;;45.97;;
78668;SDS011;67984;45.118;20.724;2023-11-22T13:46:16;126.28;;;48.55;;
78668;SDS011;67984;45.118;20.724;2023-11-22T13:56:18;84.07;;;39.28;;
78668;SDS011;67984;45.118;20.724;2023-11-22T14:06:19;65.43;;;27.92;;
78668;SDS011;67984;45.118;20.724;2023-11-22T14:16:20;57.53;;;30.90;;
78668;SDS011;67984;45.118;20.724;2023-11-22T14:26:22;53.22;;;27.35;;
78668;SDS011;67984;45.118;20.724;2023-11-22T14:36:24;32.28;;;15.90;;
78668;SDS011;67984;45.118;20.724;2023-11-22T14:46:27;179.15;;;72.57;;
78668;SDS011;67984;45.118;20.724;2023-11-22T14:56:29;77.18;;;46.92;;
78668;SDS011;67984;45.118;20.724;2023-11-22T15:06:30;46.17;;;24.92;;
78668;SDS011;67984;45.118;20.724;2023-11-22T15:16:31;30.80;;;17.42;;
78668;SDS011;67984;45.118;20.724;2023-11-22T15:26:34;32.22;;;15.15;;
78668;SDS011;67984;45.118;20.724;2023-11-22T15:36:35;52.08;;;26.23;;
78668;SDS011;67984;45.118;20.724;2023-11-22T15:46:36;56.20;;;26.05;;
78668;SDS011;67984;45.118;20.724;2023-11-22T15:56:43;41.80;;;22.63;;
78668;SDS011;67984;45.118;20.724;2023-11-22T16:06:44;30.35;;;16.10;;
78668;SDS011;67984;45.118;20.724;2023-11-22T16:16:49;38.38;;;17.95;;
78668;SDS011;67984;45.118;20.724;2023-11-22T16:26:51;47.30;;;20.40;;
78668;SDS011;67984;45.118;20.724;2023-11-22T16:36:53;27.90;;;12.32;;
78668;SDS011;67984;45.118;20.724;2023-11-22T16:46:54;27.27;;;12.13;;
78668;SDS011;67984;45.118;20.724;2023-11-22T16:56:56;28.48;;;12.52;;
78668;SDS011;67984;45.118;20.724;2023-11-22T17:06:57;24.45;;;10.18;;
78668;SDS011;67984;45.118;20.724;2023-11-22T17:17:02;71.47;;;17.63;;
78668;SDS011;67984;45.118;20.724;2023-11-22T17:27:04;50.78;;;14.23;;
78668;SDS011;67984;45.118;20.724;2023-11-22T17:37:05;34.42;;;14.40;;
78668;SDS011;67984;45.118;20.724;2023-11-22T17:47:06;33.75;;;14.95;;
78668;SDS011;67984;45.118;20.724;2023-11-22T17:57:08;43.97;;;19.20;;
78668;SDS011;67984;45.118;20.724;2023-11-22T18:07:11;41.10;;;17.05;;
78668;SDS011;67984;45.118;20.724;2023-11-22T18:17:12;36.95;;;15.57;;
78668;SDS011;67984;45.118;20.724;2023-11-22T18:27:14;45.88;;;20.15;;
78668;SDS011;67984;45.118;20.724;2023-11-22T18:37:15;24.40;;;12.40;;
78668;SDS011;67984;45.118;20.724;2023-11-22T18:47:17;29.20;;;15.63;;
78668;SDS011;67984;45.118;20.724;2023-11-22T18:57:19;39.28;;;16.67;;
78668;SDS011;67984;45.118;20.724;2023-11-22T19:07:20;30.02;;;14.32;;
78668;SDS011;67984;45.118;20.724;2023-11-22T19:17:23;26.15;;;11.48;;
78668;SDS011;67984;45.118;20.724;2023-11-22T19:27:25;49.50;;;20.95;;
78668;SDS011;67984;45.118;20.724;2023-11-22T19:37:28;31.13;;;12.38;;
78668;SDS011;67984;45.118;20.724;2023-11-22T19:47:29;42.42;;;15.90;;
78668;SDS011;67984;45.118;20.724;2023-11-22T19:57:32;33.22;;;18.33;;
78668;SDS011;67984;45.118;20.724;2023-11-22T20:07:34;41.78;;;18.38;;
78668;SDS011;67984;45.118;20.724;2023-11-22T20:17:36;28.23;;;10.68;;
78668;SDS011;67984;45.118;20.724;2023-11-22T20:37:39;33.90;;;14.43;;
78668;SDS011;67984;45.118;20.724;2023-11-22T20:47:40;25.17;;;9.25;;
78668;SDS011;67984;45.118;20.724;2023-11-22T20:57:42;20.98;;;8.98;;
78668;SDS011;67984;45.118;20.724;2023-11-22T21:07:44;37.83;;;12.95;;
78668;SDS011;67984;45.118;20.724;2023-11-22T21:17:45;22.45;;;8.45;;
78668;SDS011;67984;45.118;20.724;2023-11-22T21:27:48;22.27;;;10.32;;
78668;SDS011;67984;45.118;20.724;2023-11-22T21:37:49;31.52;;;13.90;;
78668;SDS011;67984;45.118;20.724;2023-11-22T21:57:52;16.15;;;8.73;;
78668;SDS011;67984;45.118;20.724;2023-11-22T22:07:53;36.33;;;15.05;;
78668;SDS011;67984;45.118;20.724;2023-11-22T22:17:54;21.15;;;7.72;;
78668;SDS011;67984;45.118;20.724;2023-11-22T22:27:56;16.80;;;8.77;;
78668;SDS011;67984;45.118;20.724;2023-11-22T22:37:57;22.25;;;10.52;;
78668;SDS011;67984;45.118;20.724;2023-11-22T22:47:58;23.55;;;8.85;;
78668;SDS011;67984;45.118;20.724;2023-11-22T22:58:00;26.35;;;11.50;;
78668;SDS011;67984;45.118;20.724;2023-11-22T23:08:01;32.38;;;13.15;;
78668;SDS011;67984;45.118;20.724;2023-11-22T23:18:02;24.83;;;10.55;;
78668;SDS011;67984;45.118;20.724;2023-11-22T23:28:05;19.90;;;8.98;;
78668;SDS011;67984;45.118;20.724;2023-11-22T23:38:06;23.70;;;10.27;;
78668;SDS011;67984;45.118;20.724;2023-11-22T23:48:07;19.42;;;8.80;;
78668;SDS011;67984;45.118;20.724;2023-11-22T23:58:13;30.25;;;11.75;;
